Terminal Aerodrome Forecast
Issued by NWS Atlanta, GA

Home | Current Version | Previous Version | Text Only | Print | Product List | Glossary On
Versions: 1 2 3 4 5 6 7 8 9 10 11 12
000
FTUS42 KFFC 211734
TAFCSG
TAF
KCSG 211734Z 2118/2218 11006KT P6SM FEW040 BKN250
     FM220700 10005KT P6SM SCT015 BKN025
     FM221100 09005KT P6SM BKN015
     FM221500 10008KT P6SM BKN020
     FM221700 11008G16KT P6SM BKN035=

USA.gov is the U.S. government's official web portal to all federal, state and local government web resources and services.